sensor_id;sensor_type;location;lat;lon;timestamp;P1;durP1;ratioP1;P2;durP2;ratioP2
15354;SDS011;7777;52.254;9.618;2023-07-08T00:00:50;7.17;;;2.93;;
15354;SDS011;7777;52.254;9.618;2023-07-08T00:03:17;3.57;;;2.40;;
15354;SDS011;7777;52.254;9.618;2023-07-08T00:05:44;3.90;;;2.50;;
15354;SDS011;7777;52.254;9.618;2023-07-08T00:08:12;4.80;;;2.30;;
15354;SDS011;7777;52.254;9.618;2023-07-08T00:10:40;3.73;;;2.60;;
15354;SDS011;7777;52.254;9.618;2023-07-08T00:13:07;3.23;;;2.00;;
15354;SDS011;7777;52.254;9.618;2023-07-08T00:15:34;5.37;;;2.50;;
15354;SDS011;7777;52.254;9.618;2023-07-08T00:18:03;4.57;;;2.60;;
15354;SDS011;7777;52.254;9.618;2023-07-08T00:20:40;4.93;;;2.10;;
15354;SDS011;7777;52.254;9.618;2023-07-08T00:23:10;4.70;;;2.37;;
15354;SDS011;7777;52.254;9.618;2023-07-08T00:25:36;4.00;;;1.80;;
15354;SDS011;7777;52.254;9.618;2023-07-08T00:28:04;4.10;;;2.30;;
15354;SDS011;7777;52.254;9.618;2023-07-08T00:30:39;3.40;;;1.80;;
15354;SDS011;7777;52.254;9.618;2023-07-08T00:33:05;3.23;;;2.17;;
15354;SDS011;7777;52.254;9.618;2023-07-08T00:38:24;4.07;;;2.47;;
15354;SDS011;7777;52.254;9.618;2023-07-08T00:43:36;3.40;;;2.13;;
15354;SDS011;7777;52.254;9.618;2023-07-08T00:48:53;3.37;;;2.10;;
15354;SDS011;7777;52.254;9.618;2023-07-08T00:52:16;3.93;;;2.33;;
15354;SDS011;7777;52.254;9.618;2023-07-08T00:54:54;7.83;;;2.00;;
15354;SDS011;7777;52.254;9.618;2023-07-08T00:57:23;4.17;;;2.10;;
15354;SDS011;7777;52.254;9.618;2023-07-08T01:02:46;3.37;;;1.93;;
15354;SDS011;7777;52.254;9.618;2023-07-08T01:05:17;7.13;;;2.33;;
15354;SDS011;7777;52.254;9.618;2023-07-08T01:07:49;5.63;;;2.47;;
15354;SDS011;7777;52.254;9.618;2023-07-08T01:10:22;3.77;;;2.00;;
15354;SDS011;7777;52.254;9.618;2023-07-08T01:13:13;2.90;;;2.10;;
15354;SDS011;7777;52.254;9.618;2023-07-08T01:15:41;4.67;;;2.57;;
15354;SDS011;7777;52.254;9.618;2023-07-08T01:18:11;5.13;;;2.20;;
15354;SDS011;7777;52.254;9.618;2023-07-08T01:20:41;3.40;;;2.20;;
15354;SDS011;7777;52.254;9.618;2023-07-08T01:23:07;5.10;;;2.47;;
15354;SDS011;7777;52.254;9.618;2023-07-08T01:25:36;3.50;;;2.33;;
15354;SDS011;7777;52.254;9.618;2023-07-08T01:28:02;6.23;;;2.43;;
15354;SDS011;7777;52.254;9.618;2023-07-08T01:30:28;6.70;;;2.60;;
15354;SDS011;7777;52.254;9.618;2023-07-08T01:32:55;4.47;;;2.30;;
15354;SDS011;7777;52.254;9.618;2023-07-08T01:35:27;8.30;;;2.30;;
15354;SDS011;7777;52.254;9.618;2023-07-08T01:37:54;5.13;;;2.40;;
15354;SDS011;7777;52.254;9.618;2023-07-08T01:40:29;3.57;;;2.60;;
15354;SDS011;7777;52.254;9.618;2023-07-08T01:42:55;4.50;;;2.40;;
15354;SDS011;7777;52.254;9.618;2023-07-08T01:45:22;4.70;;;2.60;;
15354;SDS011;7777;52.254;9.618;2023-07-08T01:47:52;3.93;;;2.60;;
15354;SDS011;7777;52.254;9.618;2023-07-08T01:50:23;4.40;;;2.37;;
15354;SDS011;7777;52.254;9.618;2023-07-08T01:52:50;3.57;;;2.30;;
15354;SDS011;7777;52.254;9.618;2023-07-08T01:55:25;8.90;;;2.63;;
15354;SDS011;7777;52.254;9.618;2023-07-08T01:57:53;6.57;;;3.00;;
15354;SDS011;7777;52.254;9.618;2023-07-08T02:00:20;2.97;;;2.23;;
15354;SDS011;7777;52.254;9.618;2023-07-08T02:02:47;4.93;;;2.50;;
15354;SDS011;7777;52.254;9.618;2023-07-08T02:05:14;4.33;;;2.60;;
15354;SDS011;7777;52.254;9.618;2023-07-08T02:07:40;5.00;;;2.70;;
15354;SDS011;7777;52.254;9.618;2023-07-08T02:10:06;7.47;;;2.87;;
15354;SDS011;7777;52.254;9.618;2023-07-08T02:12:33;3.20;;;2.30;;
15354;SDS011;7777;52.254;9.618;2023-07-08T02:15:02;3.63;;;2.53;;
15354;SDS011;7777;52.254;9.618;2023-07-08T02:17:29;5.10;;;2.63;;
15354;SDS011;7777;52.254;9.618;2023-07-08T02:19:55;5.43;;;2.70;;
15354;SDS011;7777;52.254;9.618;2023-07-08T02:22:21;4.87;;;2.63;;
15354;SDS011;7777;52.254;9.618;2023-07-08T02:24:48;4.93;;;2.93;;
15354;SDS011;7777;52.254;9.618;2023-07-08T02:27:14;4.40;;;2.30;;
15354;SDS011;7777;52.254;9.618;2023-07-08T02:29:39;8.57;;;3.10;;
15354;SDS011;7777;52.254;9.618;2023-07-08T02:32:06;4.00;;;2.63;;
15354;SDS011;7777;52.254;9.618;2023-07-08T02:34:34;5.97;;;3.00;;
15354;SDS011;7777;52.254;9.618;2023-07-08T02:37:01;9.93;;;3.10;;
15354;SDS011;7777;52.254;9.618;2023-07-08T02:39:27;3.87;;;2.90;;
15354;SDS011;7777;52.254;9.618;2023-07-08T02:41:53;5.63;;;2.80;;
15354;SDS011;7777;52.254;9.618;2023-07-08T02:44:19;7.37;;;3.00;;
15354;SDS011;7777;52.254;9.618;2023-07-08T02:46:44;4.70;;;2.97;;
15354;SDS011;7777;52.254;9.618;2023-07-08T02:49:10;5.43;;;2.73;;
15354;SDS011;7777;52.254;9.618;2023-07-08T02:51:36;5.97;;;2.80;;
15354;SDS011;7777;52.254;9.618;2023-07-08T02:54:01;7.17;;;2.97;;
15354;SDS011;7777;52.254;9.618;2023-07-08T02:56:27;7.03;;;2.90;;
15354;SDS011;7777;52.254;9.618;2023-07-08T02:58:53;4.80;;;3.00;;
15354;SDS011;7777;52.254;9.618;2023-07-08T03:01:19;6.43;;;3.07;;
15354;SDS011;7777;52.254;9.618;2023-07-08T03:03:45;5.07;;;2.60;;
15354;SDS011;7777;52.254;9.618;2023-07-08T03:06:11;7.87;;;3.03;;
15354;SDS011;7777;52.254;9.618;2023-07-08T03:08:38;4.73;;;2.57;;
15354;SDS011;7777;52.254;9.618;2023-07-08T03:11:04;4.37;;;2.67;;
15354;SDS011;7777;52.254;9.618;2023-07-08T03:13:32;5.43;;;2.83;;
15354;SDS011;7777;52.254;9.618;2023-07-08T03:15:59;5.37;;;2.87;;
15354;SDS011;7777;52.254;9.618;2023-07-08T03:18:27;7.17;;;2.87;;
15354;SDS011;7777;52.254;9.618;2023-07-08T03:20:54;5.87;;;2.43;;
15354;SDS011;7777;52.254;9.618;2023-07-08T03:23:22;4.47;;;2.53;;
15354;SDS011;7777;52.254;9.618;2023-07-08T03:25:49;4.97;;;2.97;;
15354;SDS011;7777;52.254;9.618;2023-07-08T03:28:15;4.40;;;2.90;;
15354;SDS011;7777;52.254;9.618;2023-07-08T03:30:41;7.97;;;2.83;;
15354;SDS011;7777;52.254;9.618;2023-07-08T03:33:08;10.40;;;2.90;;
15354;SDS011;7777;52.254;9.618;2023-07-08T03:35:35;4.33;;;2.57;;
15354;SDS011;7777;52.254;9.618;2023-07-08T03:38:01;4.70;;;2.80;;
15354;SDS011;7777;52.254;9.618;2023-07-08T03:40:28;4.60;;;2.73;;
15354;SDS011;7777;52.254;9.618;2023-07-08T03:42:54;5.87;;;3.30;;
15354;SDS011;7777;52.254;9.618;2023-07-08T03:45:19;5.00;;;3.13;;
15354;SDS011;7777;52.254;9.618;2023-07-08T03:47:45;5.10;;;2.73;;
15354;SDS011;7777;52.254;9.618;2023-07-08T03:50:15;5.27;;;2.97;;
15354;SDS011;7777;52.254;9.618;2023-07-08T03:52:52;4.57;;;3.00;;
15354;SDS011;7777;52.254;9.618;2023-07-08T03:55:20;5.53;;;2.93;;
15354;SDS011;7777;52.254;9.618;2023-07-08T03:57:46;5.40;;;2.70;;
15354;SDS011;7777;52.254;9.618;2023-07-08T04:00:12;5.90;;;2.70;;
15354;SDS011;7777;52.254;9.618;2023-07-08T04:02:39;6.33;;;2.73;;
15354;SDS011;7777;52.254;9.618;2023-07-08T04:05:08;7.63;;;3.20;;
15354;SDS011;7777;52.254;9.618;2023-07-08T04:07:44;6.10;;;3.00;;
15354;SDS011;7777;52.254;9.618;2023-07-08T04:10:10;5.40;;;3.17;;
15354;SDS011;7777;52.254;9.618;2023-07-08T04:12:37;3.67;;;2.77;;
15354;SDS011;7777;52.254;9.618;2023-07-08T04:15:03;7.00;;;3.00;;
15354;SDS011;7777;52.254;9.618;2023-07-08T04:17:31;3.60;;;2.57;;
15354;SDS011;7777;52.254;9.618;2023-07-08T04:19:57;6.93;;;2.63;;
15354;SDS011;7777;52.254;9.618;2023-07-08T04:22:31;3.40;;;2.43;;
15354;SDS011;7777;52.254;9.618;2023-07-08T04:24:56;5.27;;;2.60;;
15354;SDS011;7777;52.254;9.618;2023-07-08T04:27:22;5.50;;;3.30;;
15354;SDS011;7777;52.254;9.618;2023-07-08T04:29:48;8.97;;;2.90;;
15354;SDS011;7777;52.254;9.618;2023-07-08T04:32:14;4.70;;;2.77;;
15354;SDS011;7777;52.254;9.618;2023-07-08T04:34:40;8.93;;;3.50;;
15354;SDS011;7777;52.254;9.618;2023-07-08T04:37:06;4.63;;;2.87;;
15354;SDS011;7777;52.254;9.618;2023-07-08T04:39:33;6.20;;;3.10;;
15354;SDS011;7777;52.254;9.618;2023-07-08T04:41:59;4.33;;;2.80;;
15354;SDS011;7777;52.254;9.618;2023-07-08T04:44:25;3.63;;;2.80;;
15354;SDS011;7777;52.254;9.618;2023-07-08T04:46:55;5.23;;;3.20;;
15354;SDS011;7777;52.254;9.618;2023-07-08T04:49:22;6.13;;;3.07;;
15354;SDS011;7777;52.254;9.618;2023-07-08T04:51:49;4.23;;;2.83;;
15354;SDS011;7777;52.254;9.618;2023-07-08T04:54:16;5.60;;;3.43;;
15354;SDS011;7777;52.254;9.618;2023-07-08T04:56:43;4.87;;;3.30;;
15354;SDS011;7777;52.254;9.618;2023-07-08T04:59:14;8.13;;;3.70;;
15354;SDS011;7777;52.254;9.618;2023-07-08T05:01:42;9.07;;;3.90;;
15354;SDS011;7777;52.254;9.618;2023-07-08T05:04:09;6.37;;;3.50;;
15354;SDS011;7777;52.254;9.618;2023-07-08T05:06:38;6.80;;;3.30;;
15354;SDS011;7777;52.254;9.618;2023-07-08T05:09:04;5.33;;;3.30;;
15354;SDS011;7777;52.254;9.618;2023-07-08T05:11:30;5.93;;;4.03;;
15354;SDS011;7777;52.254;9.618;2023-07-08T05:13:56;7.33;;;3.93;;
15354;SDS011;7777;52.254;9.618;2023-07-08T05:16:22;5.70;;;3.33;;
15354;SDS011;7777;52.254;9.618;2023-07-08T05:18:47;6.33;;;3.43;;
15354;SDS011;7777;52.254;9.618;2023-07-08T05:21:13;4.87;;;3.33;;
15354;SDS011;7777;52.254;9.618;2023-07-08T05:23:40;4.33;;;3.50;;
15354;SDS011;7777;52.254;9.618;2023-07-08T05:26:06;6.83;;;4.03;;
15354;SDS011;7777;52.254;9.618;2023-07-08T05:28:34;5.20;;;3.83;;
15354;SDS011;7777;52.254;9.618;2023-07-08T05:31:00;6.13;;;3.40;;
15354;SDS011;7777;52.254;9.618;2023-07-08T05:33:27;5.17;;;3.70;;
15354;SDS011;7777;52.254;9.618;2023-07-08T05:35:55;4.93;;;3.60;;
15354;SDS011;7777;52.254;9.618;2023-07-08T05:38:21;5.73;;;3.20;;
15354;SDS011;7777;52.254;9.618;2023-07-08T05:40:50;7.83;;;3.70;;
15354;SDS011;7777;52.254;9.618;2023-07-08T05:43:19;4.67;;;3.50;;
15354;SDS011;7777;52.254;9.618;2023-07-08T05:45:45;4.37;;;3.53;;
15354;SDS011;7777;52.254;9.618;2023-07-08T05:48:11;4.90;;;3.53;;
15354;SDS011;7777;52.254;9.618;2023-07-08T05:50:37;6.43;;;3.50;;
15354;SDS011;7777;52.254;9.618;2023-07-08T05:53:04;6.07;;;3.83;;
15354;SDS011;7777;52.254;9.618;2023-07-08T05:55:30;8.13;;;3.40;;
15354;SDS011;7777;52.254;9.618;2023-07-08T05:57:59;4.47;;;3.80;;
15354;SDS011;7777;52.254;9.618;2023-07-08T06:00:25;7.23;;;3.90;;
15354;SDS011;7777;52.254;9.618;2023-07-08T06:02:53;7.80;;;3.37;;
15354;SDS011;7777;52.254;9.618;2023-07-08T06:05:19;7.47;;;3.53;;
15354;SDS011;7777;52.254;9.618;2023-07-08T06:07:45;9.50;;;3.90;;
15354;SDS011;7777;52.254;9.618;2023-07-08T06:10:10;6.77;;;3.77;;
15354;SDS011;7777;52.254;9.618;2023-07-08T06:12:36;4.47;;;3.70;;
15354;SDS011;7777;52.254;9.618;2023-07-08T06:15:02;4.60;;;3.20;;
15354;SDS011;7777;52.254;9.618;2023-07-08T06:17:28;5.60;;;3.80;;
15354;SDS011;7777;52.254;9.618;2023-07-08T06:19:54;9.20;;;4.00;;
15354;SDS011;7777;52.254;9.618;2023-07-08T06:22:20;5.53;;;3.77;;
15354;SDS011;7777;52.254;9.618;2023-07-08T06:24:46;8.93;;;4.03;;
15354;SDS011;7777;52.254;9.618;2023-07-08T06:27:12;6.10;;;3.63;;
15354;SDS011;7777;52.254;9.618;2023-07-08T06:29:39;4.77;;;3.13;;
15354;SDS011;7777;52.254;9.618;2023-07-08T06:32:05;6.43;;;4.07;;
15354;SDS011;7777;52.254;9.618;2023-07-08T06:34:32;10.50;;;4.10;;
15354;SDS011;7777;52.254;9.618;2023-07-08T06:36:57;5.77;;;3.73;;
15354;SDS011;7777;52.254;9.618;2023-07-08T06:39:23;7.57;;;3.77;;
15354;SDS011;7777;52.254;9.618;2023-07-08T06:41:49;7.27;;;3.90;;
15354;SDS011;7777;52.254;9.618;2023-07-08T06:44:15;8.47;;;3.90;;
15354;SDS011;7777;52.254;9.618;2023-07-08T06:46:40;12.53;;;3.77;;
15354;SDS011;7777;52.254;9.618;2023-07-08T06:49:06;8.43;;;4.23;;
15354;SDS011;7777;52.254;9.618;2023-07-08T06:51:34;7.73;;;3.57;;
15354;SDS011;7777;52.254;9.618;2023-07-08T06:54:00;7.30;;;3.63;;
15354;SDS011;7777;52.254;9.618;2023-07-08T06:56:29;6.93;;;3.30;;
15354;SDS011;7777;52.254;9.618;2023-07-08T06:58:56;7.53;;;3.90;;
15354;SDS011;7777;52.254;9.618;2023-07-08T07:01:22;5.20;;;3.17;;
15354;SDS011;7777;52.254;9.618;2023-07-08T07:03:47;14.10;;;4.17;;
15354;SDS011;7777;52.254;9.618;2023-07-08T07:06:14;6.60;;;3.90;;
15354;SDS011;7777;52.254;9.618;2023-07-08T07:08:40;9.43;;;3.73;;
15354;SDS011;7777;52.254;9.618;2023-07-08T07:11:05;6.57;;;3.10;;
15354;SDS011;7777;52.254;9.618;2023-07-08T07:13:31;6.80;;;3.47;;
15354;SDS011;7777;52.254;9.618;2023-07-08T07:15:58;5.87;;;3.33;;
15354;SDS011;7777;52.254;9.618;2023-07-08T07:18:23;6.87;;;3.27;;
15354;SDS011;7777;52.254;9.618;2023-07-08T07:20:49;7.50;;;4.00;;
15354;SDS011;7777;52.254;9.618;2023-07-08T07:23:18;6.07;;;3.37;;
15354;SDS011;7777;52.254;9.618;2023-07-08T07:25:45;7.60;;;3.07;;
15354;SDS011;7777;52.254;9.618;2023-07-08T07:28:15;4.73;;;3.37;;
15354;SDS011;7777;52.254;9.618;2023-07-08T07:30:45;8.40;;;3.67;;
15354;SDS011;7777;52.254;9.618;2023-07-08T07:33:12;9.27;;;3.67;;
15354;SDS011;7777;52.254;9.618;2023-07-08T07:35:42;6.57;;;3.40;;
15354;SDS011;7777;52.254;9.618;2023-07-08T07:38:09;14.03;;;3.63;;
15354;SDS011;7777;52.254;9.618;2023-07-08T07:40:35;5.83;;;3.27;;
15354;SDS011;7777;52.254;9.618;2023-07-08T07:43:01;5.33;;;3.20;;
15354;SDS011;7777;52.254;9.618;2023-07-08T07:45:27;4.40;;;3.07;;
15354;SDS011;7777;52.254;9.618;2023-07-08T07:47:53;6.63;;;3.10;;
15354;SDS011;7777;52.254;9.618;2023-07-08T07:50:18;5.77;;;3.27;;
15354;SDS011;7777;52.254;9.618;2023-07-08T07:52:44;6.73;;;3.47;;
15354;SDS011;7777;52.254;9.618;2023-07-08T07:55:10;6.47;;;3.00;;
15354;SDS011;7777;52.254;9.618;2023-07-08T07:57:36;8.73;;;3.30;;
15354;SDS011;7777;52.254;9.618;2023-07-08T08:00:02;13.50;;;3.70;;
15354;SDS011;7777;52.254;9.618;2023-07-08T08:02:28;8.50;;;4.30;;
15354;SDS011;7777;52.254;9.618;2023-07-08T08:04:54;6.57;;;2.90;;
15354;SDS011;7777;52.254;9.618;2023-07-08T08:07:20;6.20;;;3.30;;
15354;SDS011;7777;52.254;9.618;2023-07-08T08:09:45;4.33;;;3.00;;
15354;SDS011;7777;52.254;9.618;2023-07-08T08:12:11;5.13;;;3.37;;
15354;SDS011;7777;52.254;9.618;2023-07-08T08:14:37;7.27;;;3.37;;
15354;SDS011;7777;52.254;9.618;2023-07-08T08:17:04;4.37;;;3.17;;
15354;SDS011;7777;52.254;9.618;2023-07-08T08:19:30;6.37;;;3.30;;
15354;SDS011;7777;52.254;9.618;2023-07-08T08:21:57;6.53;;;3.13;;
15354;SDS011;7777;52.254;9.618;2023-07-08T08:24:22;5.67;;;3.63;;
15354;SDS011;7777;52.254;9.618;2023-07-08T08:26:48;6.20;;;3.00;;
15354;SDS011;7777;52.254;9.618;2023-07-08T08:29:14;4.70;;;3.20;;
15354;SDS011;7777;52.254;9.618;2023-07-08T08:31:40;6.43;;;3.37;;
15354;SDS011;7777;52.254;9.618;2023-07-08T08:34:05;5.80;;;3.50;;
15354;SDS011;7777;52.254;9.618;2023-07-08T08:36:31;5.57;;;3.20;;
15354;SDS011;7777;52.254;9.618;2023-07-08T08:38:57;6.33;;;3.07;;
15354;SDS011;7777;52.254;9.618;2023-07-08T08:41:32;12.40;;;3.53;;
15354;SDS011;7777;52.254;9.618;2023-07-08T08:44:02;7.83;;;3.30;;
15354;SDS011;7777;52.254;9.618;2023-07-08T08:51:32;4.67;;;2.97;;
15354;SDS011;7777;52.254;9.618;2023-07-08T08:53:59;5.03;;;3.20;;
15354;SDS011;7777;52.254;9.618;2023-07-08T08:56:27;5.97;;;3.40;;
15354;SDS011;7777;52.254;9.618;2023-07-08T08:59:11;6.07;;;2.90;;
15354;SDS011;7777;52.254;9.618;2023-07-08T09:01:50;5.70;;;2.90;;
15354;SDS011;7777;52.254;9.618;2023-07-08T09:04:23;5.53;;;2.80;;
15354;SDS011;7777;52.254;9.618;2023-07-08T09:07:04;5.33;;;2.53;;
15354;SDS011;7777;52.254;9.618;2023-07-08T09:09:41;4.70;;;2.57;;
15354;SDS011;7777;52.254;9.618;2023-07-08T09:12:17;7.17;;;2.83;;
15354;SDS011;7777;52.254;9.618;2023-07-08T09:14:50;4.10;;;3.03;;
15354;SDS011;7777;52.254;9.618;2023-07-08T09:17:20;5.33;;;2.50;;
15354;SDS011;7777;52.254;9.618;2023-07-08T09:23:15;5.70;;;3.17;;
15354;SDS011;7777;52.254;9.618;2023-07-08T09:25:54;4.50;;;2.90;;
15354;SDS011;7777;52.254;9.618;2023-07-08T09:28:39;8.17;;;2.83;;
15354;SDS011;7777;52.254;9.618;2023-07-08T09:31:16;5.20;;;2.93;;
15354;SDS011;7777;52.254;9.618;2023-07-08T09:33:50;10.43;;;3.20;;
15354;SDS011;7777;52.254;9.618;2023-07-08T09:36:41;5.73;;;2.90;;
15354;SDS011;7777;52.254;9.618;2023-07-08T09:39:13;6.67;;;3.23;;
15354;SDS011;7777;52.254;9.618;2023-07-08T09:41:46;7.00;;;2.80;;
15354;SDS011;7777;52.254;9.618;2023-07-08T09:46:57;4.77;;;3.00;;
15354;SDS011;7777;52.254;9.618;2023-07-08T09:49:33;11.00;;;3.17;;
15354;SDS011;7777;52.254;9.618;2023-07-08T09:52:01;4.10;;;2.97;;
15354;SDS011;7777;52.254;9.618;2023-07-08T09:54:27;4.67;;;3.23;;
15354;SDS011;7777;52.254;9.618;2023-07-08T09:57:03;15.23;;;2.97;;
15354;SDS011;7777;52.254;9.618;2023-07-08T09:59:58;6.30;;;3.53;;
15354;SDS011;7777;52.254;9.618;2023-07-08T10:02:46;5.40;;;3.20;;
15354;SDS011;7777;52.254;9.618;2023-07-08T10:05:26;6.40;;;2.70;;
15354;SDS011;7777;52.254;9.618;2023-07-08T10:08:07;7.83;;;3.47;;
15354;SDS011;7777;52.254;9.618;2023-07-08T10:10:49;6.40;;;2.53;;
15354;SDS011;7777;52.254;9.618;2023-07-08T10:13:40;5.40;;;3.10;;
15354;SDS011;7777;52.254;9.618;2023-07-08T10:18:39;5.57;;;2.90;;
15354;SDS011;7777;52.254;9.618;2023-07-08T10:26:57;8.33;;;3.33;;
15354;SDS011;7777;52.254;9.618;2023-07-08T10:29:41;4.43;;;3.03;;
15354;SDS011;7777;52.254;9.618;2023-07-08T10:35:21;5.63;;;3.73;;
15354;SDS011;7777;52.254;9.618;2023-07-08T10:40:39;4.30;;;2.90;;
15354;SDS011;7777;52.254;9.618;2023-07-08T10:46:18;7.07;;;3.45;;
15354;SDS011;7777;52.254;9.618;2023-07-08T10:49:20;6.07;;;3.87;;
15354;SDS011;7777;52.254;9.618;2023-07-08T10:52:12;6.88;;;3.15;;
15354;SDS011;7777;52.254;9.618;2023-07-08T11:06:11;6.72;;;3.80;;
15354;SDS011;7777;52.254;9.618;2023-07-08T11:14:14;6.88;;;3.38;;
15354;SDS011;7777;52.254;9.618;2023-07-08T11:19:36;10.13;;;3.80;;
15354;SDS011;7777;52.254;9.618;2023-07-08T11:22:09;8.02;;;3.70;;
15354;SDS011;7777;52.254;9.618;2023-07-08T11:24:40;7.80;;;3.83;;
15354;SDS011;7777;52.254;9.618;2023-07-08T11:27:15;14.80;;;4.50;;
15354;SDS011;7777;52.254;9.618;2023-07-08T11:30:12;5.68;;;3.70;;
15354;SDS011;7777;52.254;9.618;2023-07-08T11:32:47;6.93;;;4.28;;
15354;SDS011;7777;52.254;9.618;2023-07-08T11:35:23;7.18;;;4.00;;
15354;SDS011;7777;52.254;9.618;2023-07-08T11:38:09;6.35;;;3.72;;
15354;SDS011;7777;52.254;9.618;2023-07-08T11:43:21;9.45;;;4.13;;
15354;SDS011;7777;52.254;9.618;2023-07-08T11:45:52;8.27;;;4.20;;
15354;SDS011;7777;52.254;9.618;2023-07-08T11:48:24;9.32;;;4.38;;
15354;SDS011;7777;52.254;9.618;2023-07-08T11:50:54;6.22;;;4.15;;
15354;SDS011;7777;52.254;9.618;2023-07-08T11:55:56;14.32;;;4.05;;
15354;SDS011;7777;52.254;9.618;2023-07-08T11:58:24;6.32;;;4.32;;
15354;SDS011;7777;52.254;9.618;2023-07-08T12:03:37;6.57;;;4.22;;
15354;SDS011;7777;52.254;9.618;2023-07-08T12:08:54;6.55;;;4.03;;
15354;SDS011;7777;52.254;9.618;2023-07-08T12:11:31;7.80;;;4.32;;
15354;SDS011;7777;52.254;9.618;2023-07-08T12:14:00;5.35;;;4.25;;
15354;SDS011;7777;52.254;9.618;2023-07-08T12:16:29;9.05;;;4.38;;
15354;SDS011;7777;52.254;9.618;2023-07-08T12:18:57;6.38;;;3.90;;
15354;SDS011;7777;52.254;9.618;2023-07-08T12:21:25;8.38;;;4.82;;
15354;SDS011;7777;52.254;9.618;2023-07-08T12:23:52;14.73;;;4.82;;
15354;SDS011;7777;52.254;9.618;2023-07-08T12:26:19;6.88;;;4.28;;
15354;SDS011;7777;52.254;9.618;2023-07-08T12:28:46;7.57;;;4.20;;
15354;SDS011;7777;52.254;9.618;2023-07-08T12:31:16;6.00;;;3.97;;
15354;SDS011;7777;52.254;9.618;2023-07-08T12:33:45;8.20;;;3.67;;
15354;SDS011;7777;52.254;9.618;2023-07-08T12:36:21;5.15;;;3.67;;
15354;SDS011;7777;52.254;9.618;2023-07-08T12:38:51;22.45;;;4.68;;
15354;SDS011;7777;52.254;9.618;2023-07-08T12:41:19;5.13;;;3.35;;
15354;SDS011;7777;52.254;9.618;2023-07-08T12:43:48;6.18;;;3.28;;
15354;SDS011;7777;52.254;9.618;2023-07-08T12:46:16;6.10;;;4.38;;
15354;SDS011;7777;52.254;9.618;2023-07-08T12:48:46;7.45;;;3.65;;
15354;SDS011;7777;52.254;9.618;2023-07-08T12:51:16;8.80;;;3.60;;
15354;SDS011;7777;52.254;9.618;2023-07-08T12:53:49;4.45;;;3.67;;
15354;SDS011;7777;52.254;9.618;2023-07-08T12:56:16;5.93;;;4.15;;
15354;SDS011;7777;52.254;9.618;2023-07-08T12:58:50;7.28;;;3.90;;
15354;SDS011;7777;52.254;9.618;2023-07-08T13:01:20;5.13;;;3.83;;
15354;SDS011;7777;52.254;9.618;2023-07-08T13:03:54;7.28;;;4.30;;
15354;SDS011;7777;52.254;9.618;2023-07-08T13:06:25;6.25;;;3.80;;
15354;SDS011;7777;52.254;9.618;2023-07-08T13:08:56;7.00;;;3.72;;
15354;SDS011;7777;52.254;9.618;2023-07-08T13:11:57;7.22;;;3.40;;
15354;SDS011;7777;52.254;9.618;2023-07-08T13:14:48;5.68;;;3.60;;
15354;SDS011;7777;52.254;9.618;2023-07-08T13:17:14;6.80;;;3.65;;
15354;SDS011;7777;52.254;9.618;2023-07-08T13:19:41;3.95;;;3.13;;
15354;SDS011;7777;52.254;9.618;2023-07-08T13:22:12;5.40;;;4.03;;
15354;SDS011;7777;52.254;9.618;2023-07-08T13:24:42;6.95;;;4.07;;
15354;SDS011;7777;52.254;9.618;2023-07-08T13:27:12;4.13;;;3.65;;
15354;SDS011;7777;52.254;9.618;2023-07-08T13:29:53;5.60;;;4.35;;
15354;SDS011;7777;52.254;9.618;2023-07-08T13:32:44;5.60;;;3.83;;
15354;SDS011;7777;52.254;9.618;2023-07-08T13:35:47;6.90;;;3.78;;
15354;SDS011;7777;52.254;9.618;2023-07-08T13:38:05;5.28;;;3.90;;
15354;SDS011;7777;52.254;9.618;2023-07-08T13:40:42;5.43;;;3.90;;
15354;SDS011;7777;52.254;9.618;2023-07-08T13:43:13;4.70;;;3.58;;
15354;SDS011;7777;52.254;9.618;2023-07-08T13:45:43;6.90;;;4.22;;
15354;SDS011;7777;52.254;9.618;2023-07-08T13:48:14;6.60;;;4.07;;
15354;SDS011;7777;52.254;9.618;2023-07-08T13:51:05;5.43;;;3.78;;
15354;SDS011;7777;52.254;9.618;2023-07-08T13:56:07;7.10;;;4.03;;
15354;SDS011;7777;52.254;9.618;2023-07-08T13:58:44;4.68;;;4.00;;
15354;SDS011;7777;52.254;9.618;2023-07-08T14:01:32;6.90;;;3.55;;
15354;SDS011;7777;52.254;9.618;2023-07-08T14:04:00;9.32;;;4.10;;
15354;SDS011;7777;52.254;9.618;2023-07-08T14:06:34;4.97;;;3.65;;
15354;SDS011;7777;52.254;9.618;2023-07-08T14:09:21;5.88;;;4.25;;
15354;SDS011;7777;52.254;9.618;2023-07-08T14:11:49;5.72;;;4.32;;
15354;SDS011;7777;52.254;9.618;2023-07-08T14:14:16;5.22;;;3.80;;
15354;SDS011;7777;52.254;9.618;2023-07-08T14:16:47;7.25;;;3.65;;
15354;SDS011;7777;52.254;9.618;2023-07-08T14:19:34;5.57;;;3.55;;
15354;SDS011;7777;52.254;9.618;2023-07-08T14:24:41;5.20;;;3.90;;
15354;SDS011;7777;52.254;9.618;2023-07-08T14:27:08;6.60;;;4.00;;
15354;SDS011;7777;52.254;9.618;2023-07-08T14:29:37;5.13;;;4.03;;
15354;SDS011;7777;52.254;9.618;2023-07-08T14:32:04;5.05;;;3.78;;
15354;SDS011;7777;52.254;9.618;2023-07-08T14:34:39;6.15;;;3.88;;
15354;SDS011;7777;52.254;9.618;2023-07-08T14:37:15;5.85;;;4.20;;
15354;SDS011;7777;52.254;9.618;2023-07-08T14:39:43;7.05;;;4.72;;
15354;SDS011;7777;52.254;9.618;2023-07-08T14:42:10;8.65;;;4.18;;
15354;SDS011;7777;52.254;9.618;2023-07-08T14:44:39;10.38;;;4.22;;
15354;SDS011;7777;52.254;9.618;2023-07-08T14:47:10;5.20;;;3.80;;
15354;SDS011;7777;52.254;9.618;2023-07-08T14:49:39;9.90;;;3.90;;
15354;SDS011;7777;52.254;9.618;2023-07-08T14:52:05;7.20;;;4.38;;
15354;SDS011;7777;52.254;9.618;2023-07-08T14:54:32;4.90;;;3.67;;
15354;SDS011;7777;52.254;9.618;2023-07-08T14:56:58;4.82;;;3.30;;
15354;SDS011;7777;52.254;9.618;2023-07-08T14:59:25;7.45;;;4.07;;
15354;SDS011;7777;52.254;9.618;2023-07-08T15:01:56;5.60;;;3.47;;
15354;SDS011;7777;52.254;9.618;2023-07-08T15:04:23;6.30;;;3.88;;
15354;SDS011;7777;52.254;9.618;2023-07-08T15:06:50;6.47;;;3.88;;
15354;SDS011;7777;52.254;9.618;2023-07-08T15:09:17;7.40;;;4.35;;
15354;SDS011;7777;52.254;9.618;2023-07-08T15:11:43;5.57;;;4.50;;
15354;SDS011;7777;52.254;9.618;2023-07-08T15:14:22;5.82;;;3.72;;
15354;SDS011;7777;52.254;9.618;2023-07-08T15:16:50;5.78;;;3.80;;
15354;SDS011;7777;52.254;9.618;2023-07-08T15:19:17;5.75;;;4.18;;
15354;SDS011;7777;52.254;9.618;2023-07-08T15:21:44;6.28;;;3.95;;
15354;SDS011;7777;52.254;9.618;2023-07-08T15:24:11;5.78;;;3.90;;
15354;SDS011;7777;52.254;9.618;2023-07-08T15:26:41;5.20;;;3.97;;
15354;SDS011;7777;52.254;9.618;2023-07-08T15:29:12;5.90;;;3.80;;
15354;SDS011;7777;52.254;9.618;2023-07-08T15:31:41;6.03;;;3.97;;
15354;SDS011;7777;52.254;9.618;2023-07-08T15:34:11;5.95;;;4.50;;
15354;SDS011;7777;52.254;9.618;2023-07-08T15:36:43;8.90;;;4.25;;
15354;SDS011;7777;52.254;9.618;2023-07-08T15:39:09;7.32;;;4.22;;
15354;SDS011;7777;52.254;9.618;2023-07-08T15:41:36;7.20;;;4.20;;
15354;SDS011;7777;52.254;9.618;2023-07-08T15:44:07;5.35;;;4.00;;
15354;SDS011;7777;52.254;9.618;2023-07-08T15:46:43;16.13;;;4.82;;
15354;SDS011;7777;52.254;9.618;2023-07-08T15:51:42;8.25;;;4.22;;
15354;SDS011;7777;52.254;9.618;2023-07-08T15:54:09;8.32;;;4.25;;
15354;SDS011;7777;52.254;9.618;2023-07-08T15:56:36;6.35;;;4.32;;
15354;SDS011;7777;52.254;9.618;2023-07-08T15:59:03;7.95;;;4.15;;
15354;SDS011;7777;52.254;9.618;2023-07-08T16:01:31;5.05;;;3.78;;
15354;SDS011;7777;52.254;9.618;2023-07-08T16:03:57;8.38;;;4.13;;
15354;SDS011;7777;52.254;9.618;2023-07-08T16:06:24;11.65;;;4.10;;
15354;SDS011;7777;52.254;9.618;2023-07-08T16:08:51;5.60;;;3.90;;
15354;SDS011;7777;52.254;9.618;2023-07-08T16:11:28;7.20;;;4.20;;
15354;SDS011;7777;52.254;9.618;2023-07-08T16:13:56;5.00;;;3.88;;
15354;SDS011;7777;52.254;9.618;2023-07-08T16:16:22;4.53;;;3.78;;
15354;SDS011;7777;52.254;9.618;2023-07-08T16:18:50;7.78;;;3.85;;
15354;SDS011;7777;52.254;9.618;2023-07-08T16:21:16;5.18;;;4.15;;
15354;SDS011;7777;52.254;9.618;2023-07-08T16:23:42;7.78;;;3.60;;
15354;SDS011;7777;52.254;9.618;2023-07-08T16:26:08;5.53;;;3.95;;
15354;SDS011;7777;52.254;9.618;2023-07-08T16:28:40;6.07;;;4.00;;
15354;SDS011;7777;52.254;9.618;2023-07-08T16:31:12;7.03;;;4.45;;
15354;SDS011;7777;52.254;9.618;2023-07-08T16:33:41;4.93;;;4.13;;